sensor_id;sensor_type;location;lat;lon;timestamp;P1;durP1;ratioP1;P2;durP2;ratioP2
31730;SDS011;18310;55.586;12.286;2023-04-15T00:00:31;12.87;;;8.73;;
31730;SDS011;18310;55.586;12.286;2023-04-15T00:03:35;15.43;;;8.87;;
31730;SDS011;18310;55.586;12.286;2023-04-15T00:06:38;13.82;;;9.50;;
31730;SDS011;18310;55.586;12.286;2023-04-15T00:09:43;16.27;;;9.50;;
31730;SDS011;18310;55.586;12.286;2023-04-15T00:12:46;17.13;;;10.75;;
31730;SDS011;18310;55.586;12.286;2023-04-15T00:15:50;17.70;;;11.07;;
31730;SDS011;18310;55.586;12.286;2023-04-15T00:18:53;18.07;;;10.27;;
31730;SDS011;18310;55.586;12.286;2023-04-15T00:21:57;13.10;;;8.68;;
31730;SDS011;18310;55.586;12.286;2023-04-15T00:28:06;15.68;;;9.00;;
31730;SDS011;18310;55.586;12.286;2023-04-15T00:31:10;14.55;;;9.25;;
31730;SDS011;18310;55.586;12.286;2023-04-15T00:34:14;13.98;;;8.93;;
31730;SDS011;18310;55.586;12.286;2023-04-15T00:37:17;11.80;;;7.53;;
31730;SDS011;18310;55.586;12.286;2023-04-15T00:40:23;12.57;;;8.73;;
31730;SDS011;18310;55.586;12.286;2023-04-15T00:43:32;15.40;;;9.93;;
31730;SDS011;18310;55.586;12.286;2023-04-15T00:46:35;15.87;;;9.17;;
31730;SDS011;18310;55.586;12.286;2023-04-15T00:49:39;15.60;;;8.18;;
31730;SDS011;18310;55.586;12.286;2023-04-15T00:52:43;18.38;;;9.35;;
31730;SDS011;18310;55.586;12.286;2023-04-15T00:55:49;16.77;;;10.60;;
31730;SDS011;18310;55.586;12.286;2023-04-15T00:58:53;15.48;;;9.40;;
31730;SDS011;18310;55.586;12.286;2023-04-15T01:01:56;14.23;;;8.82;;
31730;SDS011;18310;55.586;12.286;2023-04-15T01:05:00;14.73;;;9.18;;
31730;SDS011;18310;55.586;12.286;2023-04-15T01:08:04;15.15;;;9.63;;
31730;SDS011;18310;55.586;12.286;2023-04-15T01:11:10;15.57;;;9.48;;
31730;SDS011;18310;55.586;12.286;2023-04-15T01:14:14;13.60;;;8.38;;
31730;SDS011;18310;55.586;12.286;2023-04-15T01:17:18;13.90;;;8.93;;
31730;SDS011;18310;55.586;12.286;2023-04-15T01:20:21;13.35;;;8.40;;
31730;SDS011;18310;55.586;12.286;2023-04-15T01:23:25;13.27;;;8.87;;
31730;SDS011;18310;55.586;12.286;2023-04-15T01:26:30;13.50;;;7.80;;
31730;SDS011;18310;55.586;12.286;2023-04-15T01:29:34;14.18;;;8.85;;
31730;SDS011;18310;55.586;12.286;2023-04-15T01:32:40;15.10;;;8.30;;
31730;SDS011;18310;55.586;12.286;2023-04-15T01:35:43;12.73;;;8.30;;
31730;SDS011;18310;55.586;12.286;2023-04-15T01:38:47;13.30;;;8.35;;
31730;SDS011;18310;55.586;12.286;2023-04-15T01:41:52;14.43;;;9.13;;
31730;SDS011;18310;55.586;12.286;2023-04-15T01:44:55;12.68;;;8.52;;
31730;SDS011;18310;55.586;12.286;2023-04-15T01:47:58;11.50;;;7.60;;
31730;SDS011;18310;55.586;12.286;2023-04-15T01:51:02;17.70;;;9.10;;
31730;SDS011;18310;55.586;12.286;2023-04-15T01:54:05;14.52;;;8.30;;
31730;SDS011;18310;55.586;12.286;2023-04-15T01:57:10;15.83;;;8.73;;
31730;SDS011;18310;55.586;12.286;2023-04-15T02:00:14;15.15;;;7.95;;
31730;SDS011;18310;55.586;12.286;2023-04-15T02:03:18;15.75;;;8.88;;
31730;SDS011;18310;55.586;12.286;2023-04-15T02:06:21;14.70;;;9.07;;
31730;SDS011;18310;55.586;12.286;2023-04-15T02:09:25;15.73;;;8.90;;
31730;SDS011;18310;55.586;12.286;2023-04-15T02:12:29;15.55;;;9.10;;
31730;SDS011;18310;55.586;12.286;2023-04-15T02:15:33;16.45;;;9.10;;
31730;SDS011;18310;55.586;12.286;2023-04-15T02:18:36;15.02;;;8.38;;
31730;SDS011;18310;55.586;12.286;2023-04-15T02:21:39;13.20;;;8.43;;
31730;SDS011;18310;55.586;12.286;2023-04-15T02:24:43;13.33;;;8.47;;
31730;SDS011;18310;55.586;12.286;2023-04-15T02:27:48;14.60;;;9.48;;
31730;SDS011;18310;55.586;12.286;2023-04-15T02:30:51;13.98;;;8.20;;
31730;SDS011;18310;55.586;12.286;2023-04-15T02:33:57;12.80;;;8.70;;
31730;SDS011;18310;55.586;12.286;2023-04-15T02:37:00;15.82;;;7.93;;
31730;SDS011;18310;55.586;12.286;2023-04-15T02:40:05;13.98;;;9.32;;
31730;SDS011;18310;55.586;12.286;2023-04-15T02:43:10;16.73;;;9.98;;
31730;SDS011;18310;55.586;12.286;2023-04-15T02:46:13;15.15;;;9.25;;
31730;SDS011;18310;55.586;12.286;2023-04-15T02:49:17;20.50;;;9.48;;
31730;SDS011;18310;55.586;12.286;2023-04-15T02:52:20;14.10;;;9.30;;
31730;SDS011;18310;55.586;12.286;2023-04-15T02:58:29;15.75;;;9.32;;
31730;SDS011;18310;55.586;12.286;2023-04-15T03:01:33;18.45;;;10.07;;
31730;SDS011;18310;55.586;12.286;2023-04-15T03:04:36;12.65;;;8.63;;
31730;SDS011;18310;55.586;12.286;2023-04-15T03:07:40;16.13;;;9.85;;
31730;SDS011;18310;55.586;12.286;2023-04-15T03:10:43;14.05;;;8.88;;
31730;SDS011;18310;55.586;12.286;2023-04-15T03:13:48;16.90;;;10.27;;
31730;SDS011;18310;55.586;12.286;2023-04-15T03:16:52;15.32;;;10.55;;
31730;SDS011;18310;55.586;12.286;2023-04-15T03:19:55;16.03;;;9.10;;
31730;SDS011;18310;55.586;12.286;2023-04-15T03:22:59;18.67;;;11.00;;
31730;SDS011;18310;55.586;12.286;2023-04-15T03:26:03;12.73;;;8.70;;
31730;SDS011;18310;55.586;12.286;2023-04-15T03:32:11;17.98;;;9.77;;
31730;SDS011;18310;55.586;12.286;2023-04-15T03:35:16;13.80;;;9.27;;
31730;SDS011;18310;55.586;12.286;2023-04-15T03:38:19;19.17;;;10.52;;
31730;SDS011;18310;55.586;12.286;2023-04-15T03:41:22;15.67;;;9.37;;
31730;SDS011;18310;55.586;12.286;2023-04-15T03:44:29;16.60;;;10.40;;
31730;SDS011;18310;55.586;12.286;2023-04-15T03:47:32;18.50;;;10.20;;
31730;SDS011;18310;55.586;12.286;2023-04-15T03:50:35;14.48;;;10.60;;
31730;SDS011;18310;55.586;12.286;2023-04-15T03:53:39;19.73;;;11.00;;
31730;SDS011;18310;55.586;12.286;2023-04-15T03:56:42;16.13;;;10.23;;
31730;SDS011;18310;55.586;12.286;2023-04-15T03:59:47;20.90;;;11.10;;
31730;SDS011;18310;55.586;12.286;2023-04-15T04:02:50;19.95;;;11.48;;
31730;SDS011;18310;55.586;12.286;2023-04-15T04:05:54;21.17;;;11.18;;
31730;SDS011;18310;55.586;12.286;2023-04-15T04:08:58;15.73;;;10.05;;
31730;SDS011;18310;55.586;12.286;2023-04-15T04:12:02;15.85;;;11.00;;
31730;SDS011;18310;55.586;12.286;2023-04-15T04:15:07;16.40;;;10.97;;
31730;SDS011;18310;55.586;12.286;2023-04-15T04:18:12;19.48;;;11.60;;
31730;SDS011;18310;55.586;12.286;2023-04-15T04:21:15;14.97;;;9.40;;
31730;SDS011;18310;55.586;12.286;2023-04-15T04:24:19;17.00;;;10.30;;
31730;SDS011;18310;55.586;12.286;2023-04-15T04:27:22;18.80;;;10.90;;
31730;SDS011;18310;55.586;12.286;2023-04-15T04:30:27;17.00;;;11.20;;
31730;SDS011;18310;55.586;12.286;2023-04-15T04:33:30;17.13;;;10.70;;
31730;SDS011;18310;55.586;12.286;2023-04-15T04:36:33;14.68;;;10.30;;
31730;SDS011;18310;55.586;12.286;2023-04-15T04:39:37;19.50;;;11.85;;
31730;SDS011;18310;55.586;12.286;2023-04-15T04:42:40;23.87;;;11.50;;
31730;SDS011;18310;55.586;12.286;2023-04-15T04:45:45;19.27;;;11.15;;
31730;SDS011;18310;55.586;12.286;2023-04-15T04:48:49;17.13;;;10.30;;
31730;SDS011;18310;55.586;12.286;2023-04-15T04:51:52;19.83;;;12.57;;
31730;SDS011;18310;55.586;12.286;2023-04-15T04:54:55;18.93;;;11.77;;
31730;SDS011;18310;55.586;12.286;2023-04-15T04:57:58;18.95;;;10.20;;
31730;SDS011;18310;55.586;12.286;2023-04-15T05:01:04;17.00;;;12.10;;
31730;SDS011;18310;55.586;12.286;2023-04-15T05:04:07;17.98;;;12.07;;
31730;SDS011;18310;55.586;12.286;2023-04-15T05:07:11;18.87;;;11.33;;
31730;SDS011;18310;55.586;12.286;2023-04-15T05:10:15;17.92;;;11.43;;
31730;SDS011;18310;55.586;12.286;2023-04-15T05:13:19;18.30;;;12.25;;
31730;SDS011;18310;55.586;12.286;2023-04-15T05:16:24;21.40;;;12.37;;
31730;SDS011;18310;55.586;12.286;2023-04-15T05:19:27;19.48;;;12.27;;
31730;SDS011;18310;55.586;12.286;2023-04-15T05:22:31;18.27;;;12.05;;
31730;SDS011;18310;55.586;12.286;2023-04-15T05:25:35;21.42;;;13.73;;
31730;SDS011;18310;55.586;12.286;2023-04-15T05:28:38;18.23;;;12.38;;
31730;SDS011;18310;55.586;12.286;2023-04-15T05:31:42;26.58;;;13.00;;
31730;SDS011;18310;55.586;12.286;2023-04-15T05:34:46;22.77;;;13.45;;
31730;SDS011;18310;55.586;12.286;2023-04-15T05:37:49;24.02;;;14.43;;
31730;SDS011;18310;55.586;12.286;2023-04-15T05:40:53;18.33;;;12.33;;
31730;SDS011;18310;55.586;12.286;2023-04-15T05:43:56;19.73;;;12.43;;
31730;SDS011;18310;55.586;12.286;2023-04-15T05:47:01;19.70;;;12.93;;
31730;SDS011;18310;55.586;12.286;2023-04-15T05:50:06;19.42;;;13.85;;
31730;SDS011;18310;55.586;12.286;2023-04-15T05:53:10;26.27;;;14.23;;
31730;SDS011;18310;55.586;12.286;2023-04-15T05:56:13;20.80;;;14.07;;
31730;SDS011;18310;55.586;12.286;2023-04-15T05:59:17;23.30;;;14.60;;
31730;SDS011;18310;55.586;12.286;2023-04-15T06:02:21;20.57;;;14.37;;
31730;SDS011;18310;55.586;12.286;2023-04-15T06:05:25;21.83;;;13.85;;
31730;SDS011;18310;55.586;12.286;2023-04-15T06:08:28;22.63;;;12.80;;
31730;SDS011;18310;55.586;12.286;2023-04-15T06:11:32;25.25;;;14.00;;
31730;SDS011;18310;55.586;12.286;2023-04-15T06:14:35;19.70;;;13.90;;
31730;SDS011;18310;55.586;12.286;2023-04-15T06:17:40;22.13;;;13.13;;
31730;SDS011;18310;55.586;12.286;2023-04-15T06:20:44;29.77;;;14.93;;
31730;SDS011;18310;55.586;12.286;2023-04-15T06:23:47;21.58;;;13.38;;
31730;SDS011;18310;55.586;12.286;2023-04-15T06:26:50;24.43;;;15.00;;
31730;SDS011;18310;55.586;12.286;2023-04-15T06:29:54;19.23;;;13.82;;
31730;SDS011;18310;55.586;12.286;2023-04-15T06:32:59;22.30;;;13.67;;
31730;SDS011;18310;55.586;12.286;2023-04-15T06:36:04;28.95;;;15.00;;
31730;SDS011;18310;55.586;12.286;2023-04-15T06:39:07;26.20;;;14.07;;
31730;SDS011;18310;55.586;12.286;2023-04-15T06:42:11;26.80;;;14.83;;
31730;SDS011;18310;55.586;12.286;2023-04-15T06:45:14;19.52;;;12.75;;
31730;SDS011;18310;55.586;12.286;2023-04-15T06:48:19;23.85;;;15.02;;
31730;SDS011;18310;55.586;12.286;2023-04-15T06:51:23;24.50;;;14.82;;
31730;SDS011;18310;55.586;12.286;2023-04-15T06:54:27;22.25;;;14.38;;
31730;SDS011;18310;55.586;12.286;2023-04-15T06:57:31;24.10;;;13.50;;
31730;SDS011;18310;55.586;12.286;2023-04-15T07:00:35;16.48;;;12.00;;
31730;SDS011;18310;55.586;12.286;2023-04-15T07:03:41;25.15;;;12.43;;
31730;SDS011;18310;55.586;12.286;2023-04-15T07:06:44;22.92;;;14.45;;
31730;SDS011;18310;55.586;12.286;2023-04-15T07:09:47;22.27;;;13.97;;
31730;SDS011;18310;55.586;12.286;2023-04-15T07:12:51;18.57;;;13.97;;
31730;SDS011;18310;55.586;12.286;2023-04-15T07:15:54;19.60;;;13.55;;
31730;SDS011;18310;55.586;12.286;2023-04-15T07:18:59;20.83;;;14.63;;
31730;SDS011;18310;55.586;12.286;2023-04-15T07:22:03;19.13;;;13.32;;
31730;SDS011;18310;55.586;12.286;2023-04-15T07:25:07;20.53;;;14.83;;
31730;SDS011;18310;55.586;12.286;2023-04-15T07:28:10;23.60;;;14.52;;
31730;SDS011;18310;55.586;12.286;2023-04-15T07:31:13;20.55;;;13.27;;
31730;SDS011;18310;55.586;12.286;2023-04-15T07:34:19;22.30;;;12.75;;
31730;SDS011;18310;55.586;12.286;2023-04-15T07:37:22;17.65;;;12.18;;
31730;SDS011;18310;55.586;12.286;2023-04-15T07:40:25;20.25;;;12.85;;
31730;SDS011;18310;55.586;12.286;2023-04-15T07:43:29;21.77;;;13.83;;
31730;SDS011;18310;55.586;12.286;2023-04-15T07:46:32;18.77;;;12.90;;
31730;SDS011;18310;55.586;12.286;2023-04-15T07:49:37;18.48;;;12.43;;
31730;SDS011;18310;55.586;12.286;2023-04-15T07:52:40;21.30;;;13.45;;
31730;SDS011;18310;55.586;12.286;2023-04-15T07:55:44;23.07;;;12.67;;
31730;SDS011;18310;55.586;12.286;2023-04-15T07:58:47;20.52;;;12.77;;
31730;SDS011;18310;55.586;12.286;2023-04-15T08:01:50;20.27;;;13.03;;
31730;SDS011;18310;55.586;12.286;2023-04-15T08:04:55;19.17;;;12.75;;
31730;SDS011;18310;55.586;12.286;2023-04-15T08:07:59;19.30;;;12.93;;
31730;SDS011;18310;55.586;12.286;2023-04-15T08:11:03;17.90;;;12.15;;
31730;SDS011;18310;55.586;12.286;2023-04-15T08:14:07;18.80;;;11.57;;
31730;SDS011;18310;55.586;12.286;2023-04-15T08:17:10;18.30;;;10.80;;
31730;SDS011;18310;55.586;12.286;2023-04-15T08:20:15;17.97;;;11.73;;
31730;SDS011;18310;55.586;12.286;2023-04-15T08:23:18;17.38;;;10.90;;
31730;SDS011;18310;55.586;12.286;2023-04-15T08:26:22;19.30;;;11.80;;
31730;SDS011;18310;55.586;12.286;2023-04-15T08:29:25;19.95;;;11.75;;
31730;SDS011;18310;55.586;12.286;2023-04-15T08:32:29;18.63;;;11.55;;
31730;SDS011;18310;55.586;12.286;2023-04-15T08:35:34;17.00;;;11.35;;
31730;SDS011;18310;55.586;12.286;2023-04-15T08:38:38;18.92;;;10.27;;
31730;SDS011;18310;55.586;12.286;2023-04-15T08:41:44;17.60;;;10.27;;
31730;SDS011;18310;55.586;12.286;2023-04-15T08:44:48;18.10;;;10.75;;
31730;SDS011;18310;55.586;12.286;2023-04-15T08:47:54;16.40;;;10.57;;
31730;SDS011;18310;55.586;12.286;2023-04-15T08:50:59;15.73;;;9.82;;
31730;SDS011;18310;55.586;12.286;2023-04-15T08:54:03;16.88;;;10.00;;
31730;SDS011;18310;55.586;12.286;2023-04-15T09:00:10;13.55;;;9.45;;
31730;SDS011;18310;55.586;12.286;2023-04-15T09:03:15;14.75;;;8.85;;
31730;SDS011;18310;55.586;12.286;2023-04-15T09:06:20;15.15;;;9.02;;
31730;SDS011;18310;55.586;12.286;2023-04-15T09:09:25;15.55;;;9.35;;
31730;SDS011;18310;55.586;12.286;2023-04-15T09:12:30;14.48;;;8.63;;
31730;SDS011;18310;55.586;12.286;2023-04-15T09:15:37;14.07;;;9.05;;
31730;SDS011;18310;55.586;12.286;2023-04-15T09:18:41;13.32;;;8.52;;
31730;SDS011;18310;55.586;12.286;2023-04-15T09:21:47;13.93;;;8.75;;
31730;SDS011;18310;55.586;12.286;2023-04-15T09:24:50;10.80;;;7.45;;
31730;SDS011;18310;55.586;12.286;2023-04-15T09:27:54;11.93;;;8.13;;
31730;SDS011;18310;55.586;12.286;2023-04-15T09:30:59;12.73;;;8.73;;
31730;SDS011;18310;55.586;12.286;2023-04-15T09:34:03;12.88;;;8.25;;
31730;SDS011;18310;55.586;12.286;2023-04-15T09:37:09;12.77;;;8.45;;
31730;SDS011;18310;55.586;12.286;2023-04-15T09:40:33;14.18;;;8.80;;
31730;SDS011;18310;55.586;12.286;2023-04-15T09:43:38;11.13;;;8.05;;
31730;SDS011;18310;55.586;12.286;2023-04-15T09:46:42;13.02;;;8.48;;
31730;SDS011;18310;55.586;12.286;2023-04-15T09:49:53;16.83;;;8.55;;
31730;SDS011;18310;55.586;12.286;2023-04-15T09:52:59;13.48;;;7.78;;
31730;SDS011;18310;55.586;12.286;2023-04-15T09:56:05;12.30;;;8.15;;
31730;SDS011;18310;55.586;12.286;2023-04-15T09:59:11;12.60;;;7.75;;
31730;SDS011;18310;55.586;12.286;2023-04-15T10:02:14;11.70;;;7.60;;
31730;SDS011;18310;55.586;12.286;2023-04-15T10:05:20;12.30;;;7.55;;
31730;SDS011;18310;55.586;12.286;2023-04-15T10:08:26;12.68;;;7.57;;
31730;SDS011;18310;55.586;12.286;2023-04-15T10:11:30;11.38;;;7.30;;
31730;SDS011;18310;55.586;12.286;2023-04-15T10:17:40;11.95;;;6.95;;
31730;SDS011;18310;55.586;12.286;2023-04-15T10:20:45;13.43;;;6.95;;
31730;SDS011;18310;55.586;12.286;2023-04-15T10:23:51;10.60;;;6.78;;
31730;SDS011;18310;55.586;12.286;2023-04-15T10:26:55;12.25;;;7.38;;
31730;SDS011;18310;55.586;12.286;2023-04-15T10:29:59;11.50;;;7.20;;
31730;SDS011;18310;55.586;12.286;2023-04-15T10:33:03;9.50;;;6.78;;
31730;SDS011;18310;55.586;12.286;2023-04-15T10:36:08;14.35;;;7.82;;
31730;SDS011;18310;55.586;12.286;2023-04-15T10:42:43;11.48;;;6.75;;
31730;SDS011;18310;55.586;12.286;2023-04-15T10:48:51;12.60;;;7.60;;
31730;SDS011;18310;55.586;12.286;2023-04-15T10:51:56;12.02;;;7.10;;
31730;SDS011;18310;55.586;12.286;2023-04-15T10:55:11;10.65;;;6.93;;
31730;SDS011;18310;55.586;12.286;2023-04-15T10:58:17;9.77;;;6.38;;
31730;SDS011;18310;55.586;12.286;2023-04-15T11:01:20;16.40;;;7.90;;
31730;SDS011;18310;55.586;12.286;2023-04-15T11:07:54;15.27;;;8.23;;
31730;SDS011;18310;55.586;12.286;2023-04-15T11:10:59;13.00;;;7.95;;
31730;SDS011;18310;55.586;12.286;2023-04-15T11:14:02;13.95;;;8.23;;
31730;SDS011;18310;55.586;12.286;2023-04-15T11:17:06;12.00;;;8.13;;
31730;SDS011;18310;55.586;12.286;2023-04-15T11:23:17;14.98;;;8.73;;
31730;SDS011;18310;55.586;12.286;2023-04-15T11:26:24;14.75;;;8.85;;
31730;SDS011;18310;55.586;12.286;2023-04-15T11:29:28;13.07;;;8.80;;
31730;SDS011;18310;55.586;12.286;2023-04-15T11:32:33;15.85;;;8.50;;
31730;SDS011;18310;55.586;12.286;2023-04-15T11:35:36;14.00;;;9.60;;
31730;SDS011;18310;55.586;12.286;2023-04-15T11:38:42;16.83;;;8.35;;
31730;SDS011;18310;55.586;12.286;2023-04-15T11:41:48;14.93;;;9.38;;
31730;SDS011;18310;55.586;12.286;2023-04-15T11:44:54;18.95;;;9.32;;
31730;SDS011;18310;55.586;12.286;2023-04-15T11:48:10;17.85;;;8.93;;
31730;SDS011;18310;55.586;12.286;2023-04-15T11:51:15;15.40;;;8.25;;
31730;SDS011;18310;55.586;12.286;2023-04-15T11:54:18;14.47;;;9.37;;
31730;SDS011;18310;55.586;12.286;2023-04-15T11:57:23;17.55;;;9.38;;
31730;SDS011;18310;55.586;12.286;2023-04-15T12:00:33;17.42;;;9.50;;
31730;SDS011;18310;55.586;12.286;2023-04-15T12:03:38;17.73;;;10.27;;
31730;SDS011;18310;55.586;12.286;2023-04-15T12:06:43;14.18;;;9.25;;
31730;SDS011;18310;55.586;12.286;2023-04-15T12:09:53;14.52;;;9.73;;
31730;SDS011;18310;55.586;12.286;2023-04-15T12:12:59;18.10;;;9.40;;
31730;SDS011;18310;55.586;12.286;2023-04-15T12:16:02;14.85;;;9.32;;
31730;SDS011;18310;55.586;12.286;2023-04-15T12:19:06;13.90;;;9.38;;
31730;SDS011;18310;55.586;12.286;2023-04-15T12:22:13;17.92;;;9.75;;
31730;SDS011;18310;55.586;12.286;2023-04-15T12:25:18;13.50;;;9.02;;
31730;SDS011;18310;55.586;12.286;2023-04-15T12:28:22;15.52;;;9.25;;
31730;SDS011;18310;55.586;12.286;2023-04-15T12:31:25;14.65;;;9.07;;
31730;SDS011;18310;55.586;12.286;2023-04-15T12:34:30;14.40;;;8.83;;
31730;SDS011;18310;55.586;12.286;2023-04-15T12:37:34;13.48;;;9.30;;
31730;SDS011;18310;55.586;12.286;2023-04-15T12:40:37;19.43;;;9.33;;
31730;SDS011;18310;55.586;12.286;2023-04-15T12:43:44;14.55;;;8.88;;
31730;SDS011;18310;55.586;12.286;2023-04-15T12:46:47;16.08;;;9.75;;
31730;SDS011;18310;55.586;12.286;2023-04-15T12:49:51;15.75;;;9.52;;
31730;SDS011;18310;55.586;12.286;2023-04-15T12:52:54;13.90;;;7.90;;
31730;SDS011;18310;55.586;12.286;2023-04-15T12:55:58;15.73;;;8.40;;
31730;SDS011;18310;55.586;12.286;2023-04-15T12:59:03;20.07;;;8.53;;
31730;SDS011;18310;55.586;12.286;2023-04-15T13:02:07;16.00;;;8.80;;
31730;SDS011;18310;55.586;12.286;2023-04-15T13:05:10;15.27;;;8.77;;
31730;SDS011;18310;55.586;12.286;2023-04-15T13:08:15;16.58;;;8.10;;
31730;SDS011;18310;55.586;12.286;2023-04-15T13:11:18;18.67;;;8.33;;
31730;SDS011;18310;55.586;12.286;2023-04-15T13:14:24;12.55;;;8.15;;
31730;SDS011;18310;55.586;12.286;2023-04-15T13:17:27;12.88;;;7.95;;
31730;SDS011;18310;55.586;12.286;2023-04-15T13:20:31;12.43;;;7.77;;
31730;SDS011;18310;55.586;12.286;2023-04-15T13:23:34;11.03;;;8.20;;
31730;SDS011;18310;55.586;12.286;2023-04-15T13:26:38;19.07;;;7.83;;
31730;SDS011;18310;55.586;12.286;2023-04-15T13:29:43;13.65;;;8.00;;
31730;SDS011;18310;55.586;12.286;2023-04-15T13:32:46;12.60;;;7.07;;
31730;SDS011;18310;55.586;12.286;2023-04-15T13:35:51;12.60;;;7.75;;
31730;SDS011;18310;55.586;12.286;2023-04-15T13:38:54;12.63;;;8.30;;
31730;SDS011;18310;55.586;12.286;2023-04-15T13:41:58;13.10;;;7.72;;
31730;SDS011;18310;55.586;12.286;2023-04-15T13:45:04;12.63;;;7.97;;
31730;SDS011;18310;55.586;12.286;2023-04-15T13:48:08;13.77;;;7.45;;
31730;SDS011;18310;55.586;12.286;2023-04-15T13:51:11;13.13;;;7.10;;
31730;SDS011;18310;55.586;12.286;2023-04-15T13:54:15;14.82;;;7.68;;
31730;SDS011;18310;55.586;12.286;2023-04-15T13:57:18;12.85;;;7.50;;
31730;SDS011;18310;55.586;12.286;2023-04-15T14:00:23;11.30;;;6.93;;
31730;SDS011;18310;55.586;12.286;2023-04-15T14:03:26;13.10;;;7.78;;
31730;SDS011;18310;55.586;12.286;2023-04-15T14:06:30;14.50;;;7.43;;
31730;SDS011;18310;55.586;12.286;2023-04-15T14:09:33;13.50;;;7.05;;
31730;SDS011;18310;55.586;12.286;2023-04-15T14:12:37;17.30;;;7.40;;
31730;SDS011;18310;55.586;12.286;2023-04-15T14:15:42;13.33;;;7.13;;
31730;SDS011;18310;55.586;12.286;2023-04-15T14:18:45;13.75;;;7.28;;
31730;SDS011;18310;55.586;12.286;2023-04-15T14:21:48;14.50;;;6.73;;
31730;SDS011;18310;55.586;12.286;2023-04-15T14:24:52;13.87;;;6.93;;
31730;SDS011;18310;55.586;12.286;2023-04-15T14:27:56;11.57;;;7.15;;
31730;SDS011;18310;55.586;12.286;2023-04-15T14:31:02;12.32;;;6.40;;
31730;SDS011;18310;55.586;12.286;2023-04-15T14:34:05;13.60;;;7.10;;
31730;SDS011;18310;55.586;12.286;2023-04-15T14:37:09;11.33;;;7.40;;
31730;SDS011;18310;55.586;12.286;2023-04-15T14:40:12;10.40;;;7.03;;
31730;SDS011;18310;55.586;12.286;2023-04-15T14:43:15;12.70;;;7.13;;
31730;SDS011;18310;55.586;12.286;2023-04-15T14:46:20;20.33;;;6.77;;
31730;SDS011;18310;55.586;12.286;2023-04-15T14:49:24;11.13;;;6.65;;
31730;SDS011;18310;55.586;12.286;2023-04-15T14:52:27;12.25;;;6.30;;
31730;SDS011;18310;55.586;12.286;2023-04-15T14:55:33;11.00;;;6.82;;
31730;SDS011;18310;55.586;12.286;2023-04-15T14:58:37;14.18;;;6.35;;
31730;SDS011;18310;55.586;12.286;2023-04-15T15:01:41;10.57;;;6.43;;
31730;SDS011;18310;55.586;12.286;2023-04-15T15:04:45;9.75;;;6.35;;
31730;SDS011;18310;55.586;12.286;2023-04-15T15:07:49;10.60;;;6.80;;
31730;SDS011;18310;55.586;12.286;2023-04-15T15:10:52;11.77;;;5.97;;
31730;SDS011;18310;55.586;12.286;2023-04-15T15:13:56;11.98;;;6.18;;
31730;SDS011;18310;55.586;12.286;2023-04-15T15:17:01;12.33;;;6.50;;
31730;SDS011;18310;55.586;12.286;2023-04-15T15:20:05;11.13;;;6.70;;
31730;SDS011;18310;55.586;12.286;2023-04-15T15:23:09;10.27;;;6.10;;
31730;SDS011;18310;55.586;12.286;2023-04-15T15:26:13;12.87;;;6.57;;
31730;SDS011;18310;55.586;12.286;2023-04-15T15:29:16;12.97;;;5.97;;
31730;SDS011;18310;55.586;12.286;2023-04-15T15:32:21;12.43;;;6.10;;
31730;SDS011;18310;55.586;12.286;2023-04-15T15:35:24;13.73;;;6.00;;
31730;SDS011;18310;55.586;12.286;2023-04-15T15:38:28;9.57;;;5.43;;
31730;SDS011;18310;55.586;12.286;2023-04-15T15:41:31;9.07;;;5.10;;
31730;SDS011;18310;55.586;12.286;2023-04-15T15:44:35;8.30;;;5.20;;
31730;SDS011;18310;55.586;12.286;2023-04-15T15:47:41;9.48;;;5.38;;
31730;SDS011;18310;55.586;12.286;2023-04-15T15:50:45;9.07;;;4.75;;
31730;SDS011;18310;55.586;12.286;2023-04-15T15:53:48;11.05;;;4.95;;
31730;SDS011;18310;55.586;12.286;2023-04-15T15:56:52;9.52;;;5.65;;
31730;SDS011;18310;55.586;12.286;2023-04-15T15:59:55;11.33;;;5.13;;
31730;SDS011;18310;55.586;12.286;2023-04-15T16:03:14;10.95;;;5.63;;
31730;SDS011;18310;55.586;12.286;2023-04-15T16:06:18;8.23;;;4.72;;
31730;SDS011;18310;55.586;12.286;2023-04-15T16:09:21;17.53;;;5.70;;
31730;SDS011;18310;55.586;12.286;2023-04-15T16:12:24;11.67;;;4.47;;
31730;SDS011;18310;55.586;12.286;2023-04-15T16:15:28;11.18;;;4.50;;
31730;SDS011;18310;55.586;12.286;2023-04-15T16:18:33;9.53;;;4.90;;
31730;SDS011;18310;55.586;12.286;2023-04-15T16:21:37;7.22;;;4.43;;
31730;SDS011;18310;55.586;12.286;2023-04-15T16:24:40;9.80;;;5.30;;
31730;SDS011;18310;55.586;12.286;2023-04-15T16:27:44;9.38;;;4.47;;
31730;SDS011;18310;55.586;12.286;2023-04-15T16:31:04;13.63;;;5.90;;
31730;SDS011;18310;55.586;12.286;2023-04-15T16:34:09;9.03;;;5.20;;
31730;SDS011;18310;55.586;12.286;2023-04-15T16:37:12;10.32;;;5.22;;
31730;SDS011;18310;55.586;12.286;2023-04-15T16:40:16;7.32;;;4.40;;
31730;SDS011;18310;55.586;12.286;2023-04-15T16:43:20;8.75;;;5.60;;
31730;SDS011;18310;55.586;12.286;2023-04-15T16:46:25;9.45;;;5.40;;
31730;SDS011;18310;55.586;12.286;2023-04-15T16:49:30;10.90;;;5.25;;
31730;SDS011;18310;55.586;12.286;2023-04-15T16:52:35;8.30;;;4.70;;
31730;SDS011;18310;55.586;12.286;2023-04-15T16:55:38;15.80;;;5.37;;
31730;SDS011;18310;55.586;12.286;2023-04-15T16:58:42;10.70;;;5.60;;
31730;SDS011;18310;55.586;12.286;2023-04-15T17:01:46;11.93;;;4.93;;
31730;SDS011;18310;55.586;12.286;2023-04-15T17:04:50;11.87;;;5.20;;
31730;SDS011;18310;55.586;12.286;2023-04-15T17:07:54;11.88;;;5.40;;
31730;SDS011;18310;55.586;12.286;2023-04-15T17:10:57;9.60;;;5.55;;
31730;SDS011;18310;55.586;12.286;2023-04-15T17:14:01;9.10;;;5.38;;
31730;SDS011;18310;55.586;12.286;2023-04-15T17:17:04;11.38;;;5.35;;
31730;SDS011;18310;55.586;12.286;2023-04-15T17:20:10;9.18;;;5.57;;
31730;SDS011;18310;55.586;12.286;2023-04-15T17:23:13;12.45;;;6.38;;
31730;SDS011;18310;55.586;12.286;2023-04-15T17:26:17;10.53;;;6.10;;
31730;SDS011;18310;55.586;12.286;2023-04-15T17:29:20;9.60;;;5.88;;
31730;SDS011;18310;55.586;12.286;2023-04-15T17:32:24;13.48;;;5.63;;
31730;SDS011;18310;55.586;12.286;2023-04-15T17:35:34;7.85;;;5.57;;
31730;SDS011;18310;55.586;12.286;2023-04-15T17:38:37;9.82;;;5.13;;
31730;SDS011;18310;55.586;12.286;2023-04-15T17:41:41;9.70;;;6.00;;
31730;SDS011;18310;55.586;12.286;2023-04-15T17:44:44;10.20;;;5.47;;
31730;SDS011;18310;55.586;12.286;2023-04-15T17:47:48;10.63;;;5.95;;
31730;SDS011;18310;55.586;12.286;2023-04-15T17:50:53;8.53;;;5.53;;
31730;SDS011;18310;55.586;12.286;2023-04-15T17:53:56;9.38;;;5.45;;
31730;SDS011;18310;55.586;12.286;2023-04-15T17:56:59;8.95;;;5.72;;
31730;SDS011;18310;55.586;12.286;2023-04-15T18:00:04;9.82;;;5.15;;
31730;SDS011;18310;55.586;12.286;2023-04-15T18:03:10;14.90;;;5.68;;
31730;SDS011;18310;55.586;12.286;2023-04-15T18:06:15;9.43;;;4.60;;
31730;SDS011;18310;55.586;12.286;2023-04-15T18:09:22;10.07;;;5.85;;
31730;SDS011;18310;55.586;12.286;2023-04-15T18:12:25;10.80;;;5.67;;
31730;SDS011;18310;55.586;12.286;2023-04-15T18:15:29;12.10;;;6.32;;
31730;SDS011;18310;55.586;12.286;2023-04-15T18:18:32;10.07;;;6.28;;
31730;SDS011;18310;55.586;12.286;2023-04-15T18:21:37;11.40;;;6.27;;